TimeCDT,TemperatureF,Dew PointF,Humidity,Sea Level PressureIn,VisibilityMPH,Wind Direction,Wind SpeedMPH,Gust SpeedMPH,PrecipitationIn,Events,Conditions,WindDirDegrees,DateUTC
12:15 AM,73.4,71.6,94,29.86,7.0,SSE,5.8,-,N/A,,Overcast,150,2013-07-22 05:15:00
12:35 AM,73.4,71.6,94,29.86,7.0,SSE,3.5,-,N/A,,Overcast,160,2013-07-22 05:35:00
12:55 AM,73.4,71.6,94,29.85,10.0,SSE,4.6,-,N/A,,Overcast,150,2013-07-22 05:55:00
1:15 AM,73.4,71.6,94,29.85,7.0,SE,4.6,-,N/A,,Overcast,140,2013-07-22 06:15:00
1:35 AM,73.4,71.6,94,29.84,7.0,SSE,4.6,-,N/A,,Overcast,150,2013-07-22 06:35:00
1:55 AM,73.4,71.6,94,29.84,7.0,South,4.6,-,N/A,,Light Drizzle,170,2013-07-22 06:55:00
2:15 AM,73.4,71.6,94,29.85,7.0,Calm,Calm,-,N/A,,Overcast,0,2013-07-22 07:15:00
2:35 AM,73.4,71.6,94,29.84,7.0,Calm,Calm,-,N/A,,Overcast,0,2013-07-22 07:35:00
2:55 AM,73.4,71.6,94,29.83,10.0,South,4.6,-,N/A,,Overcast,180,2013-07-22 07:55:00
3:15 AM,71.6,71.6,100,29.83,7.0,South,3.5,-,N/A,,Overcast,180,2013-07-22 08:15:00
3:35 AM,71.6,71.6,100,29.82,7.0,Calm,Calm,-,N/A,,Overcast,0,2013-07-22 08:35:00
3:55 AM,71.6,71.6,100,29.82,7.0,Calm,Calm,-,N/A,,Overcast,0,2013-07-22 08:55:00
4:15 AM,71.6,71.6,100,29.82,7.0,Calm,Calm,-,N/A,,Overcast,0,2013-07-22 09:15:00
4:35 AM,71.6,71.6,100,29.83,5.0,Calm,Calm,-,N/A,,Overcast,0,2013-07-22 09:35:00
4:55 AM,71.6,71.6,100,29.83,5.0,Calm,Calm,-,N/A,,Overcast,0,2013-07-22 09:55:00
5:15 AM,71.6,71.6,100,29.83,5.0,Calm,Calm,-,N/A,Rain,Light Rain,0,2013-07-22 10:15:00
5:35 AM,73.4,73.4,100,29.83,4.0,Calm,Calm,-,N/A,,Overcast,0,2013-07-22 10:35:00
5:55 AM,71.6,71.6,100,29.82,1.5,South,3.5,-,0.15,Rain,Heavy Rain,190,2013-07-22 10:55:00
6:15 AM,71.6,71.6,100,29.82,2.5,Calm,Calm,-,0.16,,Light Drizzle,0,2013-07-22 11:15:00
6:35 AM,73.4,73.4,100,29.82,2.5,Calm,Calm,-,0.16,,Overcast,0,2013-07-22 11:35:00
6:55 AM,73.4,73.4,100,29.82,3.0,Calm,Calm,-,N/A,,Scattered Clouds,0,2013-07-22 11:55:00
7:15 AM,73.4,73.4,100,29.83,4.0,Calm,Calm,-,N/A,,Scattered Clouds,0,2013-07-22 12:15:00
7:35 AM,75.2,73.4,94,29.83,5.0,Calm,Calm,-,N/A,,Mostly Cloudy,0,2013-07-22 12:35:00
7:55 AM,77.0,71.6,83,29.84,10.0,West,4.6,-,N/A,,Mostly Cloudy,280,2013-07-22 12:55:00
8:15 AM,77.0,71.6,83,29.84,10.0,Calm,Calm,-,N/A,,Mostly Cloudy,0,2013-07-22 13:15:00
8:35 AM,75.2,71.6,89,29.84,10.0,Calm,Calm,-,N/A,,Mostly Cloudy,0,2013-07-22 13:35:00
9:35 AM,80.6,71.6,74,29.84,10.0,WNW,6.9,-,N/A,,Scattered Clouds,290,2013-07-22 14:35:00
9:55 AM,80.6,71.6,74,29.84,10.0,NW,6.9,-,N/A,,Mostly Cloudy,310,2013-07-22 14:55:00
10:15 AM,78.8,71.6,78,29.85,10.0,NW,9.2,-,N/A,,Mostly Cloudy,310,2013-07-22 15:15:00
10:35 AM,78.8,71.6,78,29.85,10.0,NNW,6.9,-,N/A,,Overcast,340,2013-07-22 15:35:00
10:55 AM,80.6,71.6,74,29.85,10.0,NW,5.8,-,N/A,,Mostly Cloudy,310,2013-07-22 15:55:00
11:15 AM,80.6,71.6,74,29.85,10.0,West,5.8,-,N/A,,Scattered Clouds,280,2013-07-22 16:15:00
11:35 AM,80.6,71.6,74,29.85,10.0,WNW,10.4,-,N/A,,Scattered Clouds,290,2013-07-22 16:35:00
11:55 AM,82.4,71.6,70,29.86,10.0,WNW,8.1,-,N/A,,Scattered Clouds,300,2013-07-22 16:55:00
12:15 PM,82.4,71.6,70,29.85,10.0,NW,8.1,-,N/A,,Scattered Clouds,310,2013-07-22 17:15:00
12:35 PM,82.4,71.6,70,29.85,10.0,WNW,8.1,-,N/A,,Scattered Clouds,300,2013-07-22 17:35:00
12:55 PM,84.2,71.6,66,29.84,10.0,WNW,9.2,-,N/A,,Scattered Clouds,290,2013-07-22 17:55:00
1:15 PM,84.2,71.6,66,29.84,10.0,WNW,6.9,-,N/A,,Scattered Clouds,300,2013-07-22 18:15:00
1:35 PM,86.0,71.6,62,29.84,10.0,WNW,9.2,-,N/A,,Clear,300,2013-07-22 18:35:00
1:55 PM,87.8,71.6,58,29.84,10.0,NW,8.1,-,N/A,,Scattered Clouds,310,2013-07-22 18:55:00
2:15 PM,86.0,69.8,58,29.83,10.0,WNW,8.1,-,N/A,,Scattered Clouds,300,2013-07-22 19:15:00
2:35 PM,87.8,71.6,58,29.83,10.0,West,4.6,-,N/A,,Clear,280,2013-07-22 19:35:00
2:55 PM,87.8,71.6,58,29.83,10.0,WNW,8.1,-,N/A,,Scattered Clouds,300,2013-07-22 19:55:00
3:15 PM,87.8,71.6,58,29.83,10.0,WNW,5.8,-,N/A,,Scattered Clouds,300,2013-07-22 20:15:00
3:35 PM,87.8,71.6,58,29.82,10.0,NW,5.8,-,N/A,,Mostly Cloudy,310,2013-07-22 20:35:00
3:55 PM,89.6,71.6,55,29.82,10.0,WNW,6.9,-,N/A,,Mostly Cloudy,300,2013-07-22 20:55:00
4:15 PM,87.8,71.6,58,29.82,10.0,NNW,8.1,-,N/A,,Mostly Cloudy,330,2013-07-22 21:15:00
4:35 PM,89.6,71.6,55,29.82,10.0,WNW,9.2,-,N/A,,Mostly Cloudy,300,2013-07-22 21:35:00
4:55 PM,87.8,71.6,58,29.82,10.0,WNW,9.2,-,N/A,,Clear,290,2013-07-22 21:55:00
5:15 PM,87.8,71.6,58,29.82,10.0,NW,10.4,-,N/A,,Clear,310,2013-07-22 22:15:00
5:35 PM,87.8,71.6,58,29.81,10.0,WNW,5.8,-,N/A,,Clear,290,2013-07-22 22:35:00
5:55 PM,87.8,71.6,58,29.81,10.0,WNW,6.9,-,N/A,,Clear,300,2013-07-22 22:55:00
6:15 PM,87.8,73.4,62,29.80,10.0,NW,3.5,-,N/A,,Clear,310,2013-07-22 23:15:00
6:35 PM,87.8,71.6,58,29.80,10.0,NW,3.5,-,N/A,,Clear,320,2013-07-22 23:35:00
6:55 PM,86.0,71.6,62,29.80,10.0,Calm,Calm,-,N/A,,Clear,0,2013-07-22 23:55:00
7:15 PM,84.2,71.6,66,29.80,10.0,Calm,Calm,-,N/A,,Clear,0,2013-07-23 00:15:00
7:35 PM,82.4,75.2,79,29.80,10.0,Calm,Calm,-,N/A,,Clear,0,2013-07-23 00:35:00
7:55 PM,82.4,75.2,79,29.80,10.0,Calm,Calm,-,N/A,,Clear,0,2013-07-23 00:55:00
8:15 PM,80.6,75.2,84,29.81,10.0,Calm,Calm,-,N/A,,Clear,0,2013-07-23 01:15:00
8:35 PM,78.8,75.2,89,29.82,10.0,Calm,Calm,-,N/A,,Clear,0,2013-07-23 01:35:00
8:55 PM,78.8,75.2,89,29.83,10.0,Calm,Calm,-,N/A,,Clear,0,2013-07-23 01:55:00
9:15 PM,77.0,75.2,94,29.84,10.0,Calm,Calm,-,N/A,,Clear,0,2013-07-23 02:15:00
9:35 PM,78.8,75.2,89,29.84,10.0,Calm,Calm,-,N/A,,Clear,0,2013-07-23 02:35:00
9:55 PM,78.8,73.4,83,29.85,10.0,Calm,Calm,-,N/A,,Clear,0,2013-07-23 02:55:00
10:15 PM,78.8,75.2,89,29.85,10.0,Calm,Calm,-,N/A,,Clear,0,2013-07-23 03:15:00
10:35 PM,77.0,75.2,94,29.84,10.0,Calm,Calm,-,N/A,,Clear,0,2013-07-23 03:35:00
10:55 PM,77.0,75.2,94,29.84,10.0,Calm,Calm,-,N/A,,Clear,0,2013-07-23 03:55:00
11:15 PM,77.0,75.2,94,29.85,10.0,Calm,Calm,-,N/A,,Clear,0,2013-07-23 04:15:00
11:35 PM,75.2,75.2,100,29.85,10.0,Calm,Calm,-,N/A,,Clear,0,2013-07-23 04:35:00
11:55 PM,75.2,75.2,100,29.85,10.0,Calm,Calm,-,N/A,,Clear,0,2013-07-23 04:55:00